createdAt,value
2019-01-04T00:00:09.825Z,0
2019-01-04T00:01:20.009Z,0
2019-01-04T00:02:30.057Z,0
2019-01-04T00:03:39.910Z,0
2019-01-04T00:04:49.735Z,0
2019-01-04T00:05:59.809Z,0
2019-01-04T00:07:09.869Z,0
2019-01-04T00:08:20.150Z,0
2019-01-04T00:09:30.215Z,0
2019-01-04T00:10:40.284Z,0
2019-01-04T00:11:50.123Z,0
2019-01-04T00:13:02.095Z,0
2019-01-04T00:14:11.644Z,0
2019-01-04T00:15:21.704Z,0
2019-01-04T00:16:31.778Z,0
2019-01-04T00:17:41.858Z,0
2019-01-04T00:18:52.983Z,0
2019-01-04T00:20:05.391Z,0
2019-01-04T00:21:15.464Z,0
2019-01-04T00:22:25.528Z,0
2019-01-04T00:23:35.597Z,0
2019-01-04T00:24:45.664Z,0
2019-01-04T00:25:55.743Z,0
2019-01-04T00:27:05.571Z,0
2019-01-04T00:28:15.376Z,0
2019-01-04T00:29:25.439Z,0
2019-01-04T00:30:35.258Z,0
2019-01-04T00:31:45.312Z,0
2019-01-04T00:32:55.369Z,0
2019-01-04T00:34:05.815Z,0
2019-01-04T00:35:15.876Z,0
2019-01-04T00:36:25.939Z,0
2019-01-04T00:37:36.010Z,0
2019-01-04T00:38:45.831Z,0
2019-01-04T00:39:55.909Z,0
2019-01-04T00:41:05.998Z,0
2019-01-04T00:42:15.819Z,0
2019-01-04T00:43:25.901Z,0
2019-01-04T00:44:35.945Z,0
2019-01-04T00:45:45.993Z,0
2019-01-04T00:46:56.051Z,0
2019-01-04T00:48:06.123Z,0
2019-01-04T00:49:16.219Z,0
2019-01-04T00:50:26.028Z,0
2019-01-04T00:51:35.848Z,0
2019-01-04T00:52:45.921Z,0
2019-01-04T00:53:55.991Z,0
2019-01-04T00:55:06.043Z,0
2019-01-04T00:56:16.134Z,0
2019-01-04T00:57:26.191Z,0
2019-01-04T00:58:36.246Z,0
2019-01-04T00:59:46.316Z,0
2019-01-04T01:00:56.371Z,0
2019-01-04T01:02:06.425Z,0
2019-01-04T01:03:16.227Z,0
2019-01-04T01:04:25.784Z,0
2019-01-04T01:05:35.571Z,0
2019-01-04T01:06:45.644Z,0
2019-01-04T01:07:55.744Z,0
2019-01-04T01:09:06.267Z,0
2019-01-04T01:10:16.313Z,0
2019-01-04T01:11:26.399Z,0
2019-01-04T01:12:36.507Z,0
2019-01-04T01:13:46.578Z,0
2019-01-04T01:14:56.380Z,0
2019-01-04T01:16:06.458Z,0
2019-01-04T01:17:16.254Z,0
2019-01-04T01:18:25.850Z,0
2019-01-04T01:19:35.377Z,0
2019-01-04T01:20:45.448Z,0
2019-01-04T01:21:55.501Z,0
2019-01-04T01:23:06.036Z,0
2019-01-04T01:24:16.127Z,0
2019-01-04T01:25:26.199Z,0
2019-01-04T01:26:36.262Z,0
2019-01-04T01:27:46.323Z,0
2019-01-04T01:28:55.862Z,0
2019-01-04T01:30:05.929Z,0
2019-01-04T01:31:15.725Z,0
2019-01-04T01:32:25.782Z,0
2019-01-04T01:33:35.823Z,0
2019-01-04T01:34:45.939Z,0
2019-01-04T01:35:55.791Z,0
2019-01-04T01:37:06.137Z,0
2019-01-04T01:38:16.185Z,0
2019-01-04T01:39:26.004Z,0
2019-01-04T01:40:35.812Z,0
2019-01-04T01:41:45.924Z,0
2019-01-04T01:42:55.979Z,0
2019-01-04T01:44:06.194Z,0
2019-01-04T01:45:15.727Z,0
2019-01-04T01:46:25.791Z,0
2019-01-04T01:47:35.858Z,0
2019-01-04T01:48:45.679Z,0
2019-01-04T01:49:55.717Z,0
2019-01-04T01:51:05.523Z,0
2019-01-04T01:52:15.566Z,0
2019-01-04T01:53:25.385Z,0
2019-01-04T01:54:35.430Z,0
2019-01-04T01:55:45.476Z,0
2019-01-04T01:56:56.588Z,0
2019-01-04T01:58:06.381Z,0
2019-01-04T01:59:16.194Z,0
2019-01-04T02:00:26.002Z,0
2019-01-04T02:01:35.835Z,0
2019-01-04T02:02:45.907Z,0
2019-01-04T02:03:55.966Z,0
2019-01-04T02:05:06.014Z,0
2019-01-04T02:06:15.815Z,0
2019-01-04T02:07:25.923Z,0
2019-01-04T02:08:36.000Z,0
2019-01-04T02:09:46.047Z,0
2019-01-04T02:10:56.109Z,0
2019-01-04T02:12:06.165Z,0
2019-01-04T02:13:16.271Z,0
2019-01-04T02:14:26.359Z,0
2019-01-04T02:15:36.465Z,0
2019-01-04T02:16:46.499Z,0
2019-01-04T02:17:56.307Z,0
2019-01-04T02:19:06.962Z,0
2019-01-04T02:20:17.014Z,0
2019-01-04T02:21:26.830Z,0
2019-01-04T02:22:36.906Z,0
2019-01-04T02:23:46.957Z,0
2019-01-04T02:24:57.003Z,0
2019-01-04T02:26:07.072Z,0
2019-01-04T02:27:17.118Z,0
2019-01-04T02:28:27.227Z,0
2019-01-04T02:29:37.284Z,0
2019-01-04T02:30:47.353Z,0
2019-01-04T02:31:57.177Z,0
2019-01-04T02:33:07.231Z,0
2019-01-04T02:34:17.288Z,0
2019-01-04T02:35:27.330Z,0
2019-01-04T02:36:37.419Z,0
2019-01-04T02:37:47.224Z,0
2019-01-04T02:38:57.021Z,0
2019-01-04T02:40:07.113Z,0
2019-01-04T02:41:17.182Z,0
2019-01-04T02:42:27.255Z,0
2019-01-04T02:43:37.348Z,0
2019-01-04T02:44:47.418Z,0
2019-01-04T02:45:57.463Z,0
2019-01-04T02:47:07.597Z,0
2019-01-04T02:48:17.664Z,0
2019-01-04T02:49:27.463Z,0
2019-01-04T02:50:37.567Z,0
2019-01-04T02:51:47.689Z,0
2019-01-04T02:52:57.810Z,0
2019-01-04T02:54:09.037Z,0
2019-01-04T02:55:19.073Z,0
2019-01-04T02:56:29.158Z,0
2019-01-04T02:57:39.294Z,0
2019-01-04T02:58:49.357Z,0
2019-01-04T02:59:59.161Z,0
2019-01-04T03:01:09.380Z,0
2019-01-04T03:02:19.173Z,0
2019-01-04T03:34:58.573Z,0
2019-01-04T03:36:10.174Z,0
2019-01-04T03:37:20.231Z,0
2019-01-04T03:38:30.025Z,0
2019-01-04T03:39:39.861Z,0
2019-01-04T03:40:49.954Z,0
2019-01-04T03:41:59.994Z,0
2019-01-04T03:43:10.044Z,0
2019-01-04T03:44:20.113Z,0
2019-01-04T03:45:29.964Z,0
2019-01-04T03:46:40.089Z,0
2019-01-04T03:47:50.156Z,0
2019-01-04T03:49:00.234Z,0
2019-01-04T03:50:10.030Z,0
2019-01-04T03:51:20.098Z,0
2019-01-04T03:52:29.946Z,0
2019-01-04T03:53:40.023Z,0
2019-01-04T03:54:50.091Z,0
2019-01-04T03:56:02.153Z,0
2019-01-04T03:57:11.694Z,0
2019-01-04T03:58:21.772Z,0
2019-01-04T03:59:31.841Z,0
2019-01-04T04:00:41.639Z,0
2019-01-04T04:01:51.189Z,0
2019-01-04T04:03:01.015Z,0
2019-01-04T04:04:11.066Z,0
2019-01-04T04:05:21.133Z,0
2019-01-04T04:06:30.940Z,0
2019-01-04T04:07:41.013Z,0
2019-01-04T04:08:51.092Z,0
2019-01-04T04:10:00.946Z,0
2019-01-04T04:11:11.025Z,0
2019-01-04T04:12:21.061Z,0
2019-01-04T04:13:31.127Z,0
2019-01-04T04:14:41.190Z,0
2019-01-04T04:15:51.240Z,0
2019-01-04T04:17:01.472Z,0
2019-01-04T04:18:11.532Z,0
2019-01-04T04:19:21.591Z,0
2019-01-04T04:20:31.666Z,0
2019-01-04T04:21:41.726Z,0
2019-01-04T04:22:51.775Z,0
2019-01-04T04:24:01.839Z,0
2019-01-04T04:25:11.891Z,0
2019-01-04T04:26:21.707Z,0
2019-01-04T04:27:31.766Z,0
2019-01-04T04:28:41.825Z,0
2019-01-04T04:29:51.624Z,0
2019-01-04T04:31:01.439Z,0
2019-01-04T04:32:11.258Z,0
2019-01-04T04:33:21.070Z,0
2019-01-04T04:34:30.887Z,0
2019-01-04T04:35:40.952Z,0
2019-01-04T04:36:51.008Z,0
2019-01-04T04:38:01.461Z,0
2019-01-04T04:39:11.585Z,0
2019-01-04T04:40:21.645Z,0
2019-01-04T04:41:31.464Z,0
2019-01-04T04:42:41.262Z,0
2019-01-04T04:43:51.316Z,0
2019-01-04T04:45:01.356Z,0
2019-01-04T04:46:11.429Z,0
2019-01-04T04:47:21.248Z,0
2019-01-04T04:48:31.331Z,0
2019-01-04T04:49:41.413Z,0
2019-01-04T04:50:51.489Z,0
2019-01-04T04:52:01.538Z,0
2019-01-04T04:53:11.589Z,0
2019-01-04T04:54:21.661Z,0
2019-01-04T04:55:31.721Z,0
2019-01-04T04:56:41.779Z,0
2019-01-04T04:57:51.871Z,0
2019-01-04T04:59:01.680Z,0
2019-01-04T05:00:12.363Z,0
2019-01-04T05:01:22.619Z,0
2019-01-04T05:02:32.470Z,0
2019-01-04T05:03:42.514Z,0
2019-01-04T05:04:52.336Z,0
2019-01-04T05:06:02.396Z,0
2019-01-04T05:07:12.222Z,0
2019-01-04T05:08:22.069Z,0
2019-01-04T05:09:31.865Z,0
2019-01-04T05:10:41.932Z,0
2019-01-04T05:11:51.731Z,0
2019-01-04T05:13:01.805Z,0
2019-01-04T05:14:11.638Z,0
2019-01-04T05:15:21.700Z,0
2019-01-04T05:16:31.775Z,0
2019-01-04T05:17:41.899Z,0
2019-01-04T05:18:51.975Z,0
2019-01-04T05:20:02.047Z,0
2019-01-04T05:21:12.117Z,0
2019-01-04T05:22:22.180Z,0
2019-01-04T05:23:32.241Z,0
2019-01-04T05:24:42.332Z,0
2019-01-04T05:25:52.398Z,0
2019-01-04T05:27:02.464Z,0
2019-01-04T05:28:12.005Z,0
2019-01-04T05:29:21.890Z,0
2019-01-04T05:30:31.684Z,0
2019-01-04T05:31:42.002Z,0
2019-01-04T05:32:52.073Z,0
2019-01-04T05:34:01.898Z,0
2019-01-04T05:35:11.963Z,0
2019-01-04T05:36:22.025Z,0
2019-01-04T05:37:31.840Z,0
2019-01-04T05:38:41.903Z,0
2019-01-04T05:39:52.037Z,0
2019-01-04T05:41:02.094Z,0
2019-01-04T05:42:12.162Z,0
2019-01-04T05:43:22.247Z,0
2019-01-04T05:44:32.324Z,0
2019-01-04T05:45:42.380Z,0
2019-01-04T05:46:52.456Z,0
2019-01-04T05:48:02.510Z,0
2019-01-04T05:49:12.650Z,0
2019-01-04T05:50:22.466Z,0
2019-01-04T05:51:33.493Z,0
2019-01-04T05:52:43.564Z,0
2019-01-04T05:53:53.102Z,0
2019-01-04T05:55:02.900Z,0
2019-01-04T05:56:12.951Z,0
2019-01-04T05:57:23.001Z,0
2019-01-04T05:58:32.803Z,0
2019-01-04T05:59:42.617Z,0
2019-01-04T06:00:52.695Z,0
2019-01-04T06:02:02.746Z,0
2019-01-04T06:03:12.851Z,0
2019-01-04T06:04:22.946Z,0
2019-01-04T06:05:32.996Z,0
2019-01-04T06:06:43.066Z,0
2019-01-04T06:07:52.869Z,0
2019-01-04T06:09:02.933Z,0
2019-01-04T06:10:12.974Z,0
2019-01-04T06:11:23.037Z,0
2019-01-04T06:12:33.092Z,4
2019-01-04T06:13:43.149Z,4
2019-01-04T06:14:53.214Z,0
2019-01-04T06:16:03.011Z,4
2019-01-04T06:17:13.068Z,0
2019-01-04T06:18:23.111Z,4
2019-01-04T06:19:32.904Z,4
2019-01-04T06:20:43.199Z,4
2019-01-04T06:21:53.036Z,8
2019-01-04T06:23:04.658Z,8
2019-01-04T06:24:14.764Z,8
2019-01-04T06:25:24.841Z,12
2019-01-04T06:26:34.902Z,12
2019-01-04T06:27:44.963Z,12
2019-01-04T06:28:55.019Z,16
2019-01-04T06:30:05.157Z,24
2019-01-04T06:31:15.199Z,28
2019-01-04T06:32:25.013Z,32
2019-01-04T06:33:35.064Z,36
2019-01-04T06:34:45.146Z,44
2019-01-04T06:35:55.214Z,52
2019-01-04T06:37:05.064Z,56
2019-01-04T06:38:15.141Z,64
2019-01-04T06:39:24.947Z,72
2019-01-04T06:40:34.740Z,84
2019-01-04T06:41:44.557Z,96
2019-01-04T06:42:54.622Z,108
2019-01-04T06:44:05.533Z,116
2019-01-04T06:45:15.602Z,128
2019-01-04T06:46:25.656Z,144
2019-01-04T06:47:35.196Z,160
2019-01-04T06:48:45.248Z,172
2019-01-04T06:49:55.085Z,188
2019-01-04T06:51:04.916Z,200
2019-01-04T06:52:14.713Z,220
2019-01-04T06:53:24.798Z,236
2019-01-04T06:54:34.851Z,256
2019-01-04T06:55:44.925Z,272
2019-01-04T06:56:54.987Z,296
2019-01-04T06:58:05.153Z,316
2019-01-04T06:59:15.009Z,344
2019-01-04T07:00:25.049Z,376
2019-01-04T07:01:35.125Z,408
2019-01-04T07:02:44.919Z,440
2019-01-04T07:03:55.010Z,472
2019-01-04T07:05:05.067Z,500
2019-01-04T07:06:14.865Z,524
2019-01-04T07:07:24.937Z,540
2019-01-04T07:08:34.734Z,564
2019-01-04T07:09:44.796Z,584
2019-01-04T07:10:54.918Z,624
2019-01-04T07:12:04.718Z,676
2019-01-04T07:13:14.514Z,712
2019-01-04T07:14:24.572Z,728
2019-01-04T07:15:34.639Z,736
2019-01-04T07:16:44.221Z,708
2019-01-04T07:17:54.523Z,708
2019-01-04T07:19:04.605Z,736
2019-01-04T07:20:14.401Z,772
2019-01-04T07:21:24.451Z,804
2019-01-04T07:22:34.271Z,852
2019-01-04T07:23:44.344Z,916
2019-01-04T07:24:54.390Z,956
2019-01-04T07:26:04.220Z,972
2019-01-04T07:27:14.011Z,1032
2019-01-04T07:28:23.562Z,1120
2019-01-04T07:29:33.607Z,1212
2019-01-04T07:30:43.415Z,1276
2019-01-04T07:31:53.473Z,1320
2019-01-04T07:33:03.570Z,1400
2019-01-04T07:34:13.661Z,1404
2019-01-04T07:35:23.725Z,1372
2019-01-04T07:36:33.269Z,1420
2019-01-04T07:37:43.324Z,1460
2019-01-04T07:38:53.379Z,1468
2019-01-04T07:40:03.428Z,1512
2019-01-04T07:41:13.503Z,1552
2019-01-04T07:42:23.552Z,1568
2019-01-04T07:43:33.598Z,1504
2019-01-04T07:44:43.668Z,1500
2019-01-04T07:45:53.742Z,1560
2019-01-04T07:47:03.824Z,1632
2019-01-04T07:48:13.884Z,1708
2019-01-04T07:49:23.948Z,1780
2019-01-04T07:50:33.738Z,1844
2019-01-04T07:51:43.586Z,1944
2019-01-04T07:52:53.654Z,1988
2019-01-04T07:54:03.708Z,1992
2019-01-04T07:55:13.778Z,2032
2019-01-04T07:56:23.830Z,2084
2019-01-04T07:57:33.894Z,2136
2019-01-04T07:58:43.988Z,2188
2019-01-04T07:59:53.790Z,2432
2019-01-04T08:01:03.579Z,2348
2019-01-04T08:02:13.659Z,2428
2019-01-04T08:03:23.749Z,2252
2019-01-04T08:04:33.828Z,2440
2019-01-04T08:05:43.375Z,2596
2019-01-04T08:06:53.412Z,2356
2019-01-04T08:08:03.236Z,2432
2019-01-04T08:09:13.384Z,2192
2019-01-04T08:10:23.440Z,2228
2019-01-04T08:11:33.261Z,2340
2019-01-04T08:12:43.081Z,2612
2019-01-04T08:13:52.890Z,3044
2019-01-04T08:15:02.931Z,3176
2019-01-04T08:16:13.022Z,2948
2019-01-04T08:17:23.063Z,2780
2019-01-04T08:18:33.130Z,2744
2019-01-04T08:19:43.192Z,3164
2019-01-04T08:20:53.251Z,2912
2019-01-04T08:22:03.303Z,3104
2019-01-04T08:23:13.369Z,3352
2019-01-04T08:24:23.468Z,3108
2019-01-04T08:25:33.530Z,3192
2019-01-04T08:26:43.389Z,3328
2019-01-04T08:27:52.943Z,3120
2019-01-04T08:29:02.989Z,2996
2019-01-04T08:30:13.074Z,2828
2019-01-04T08:31:22.892Z,2728
2019-01-04T08:32:33.074Z,2872
2019-01-04T08:33:43.168Z,2768
2019-01-04T08:34:53.216Z,2628
2019-01-04T08:36:04.571Z,2668
2019-01-04T08:37:14.644Z,2656
2019-01-04T08:38:24.769Z,2592
2019-01-04T08:39:34.839Z,2552
2019-01-04T08:40:44.903Z,2596
2019-01-04T08:41:54.707Z,2636
2019-01-04T08:43:04.815Z,2680
2019-01-04T08:44:14.883Z,2696
2019-01-04T08:45:24.960Z,2656
2019-01-04T08:46:35.035Z,2672
2019-01-04T08:47:45.100Z,2692
2019-01-04T08:48:55.185Z,2728
2019-01-04T08:50:05.309Z,2684
2019-01-04T08:51:15.381Z,2628
2019-01-04T08:52:25.437Z,2576
2019-01-04T08:53:35.520Z,2648
2019-01-04T08:54:45.610Z,2696
2019-01-04T08:55:55.666Z,2712
2019-01-04T08:57:07.125Z,2752
2019-01-04T08:58:17.177Z,2756
2019-01-04T08:59:27.245Z,2688
2019-01-04T09:00:37.321Z,2732
2019-01-04T09:01:47.145Z,2676
2019-01-04T09:02:57.468Z,2636
2019-01-04T09:04:07.568Z,2612
2019-01-04T09:05:17.614Z,2620
2019-01-04T09:06:27.431Z,2588
2019-01-04T09:07:37.488Z,2560
2019-01-04T09:08:47.556Z,2552
2019-01-04T09:09:57.646Z,2544
2019-01-04T09:11:07.711Z,2532
2019-01-04T09:12:17.769Z,2480
2019-01-04T09:13:27.837Z,2468
2019-01-04T09:14:37.660Z,2428
2019-01-04T09:15:47.725Z,2400
2019-01-04T09:16:57.789Z,2392
2019-01-04T09:18:07.891Z,2372
2019-01-04T09:19:17.951Z,2372
2019-01-04T09:20:28.039Z,2372
2019-01-04T09:21:38.104Z,2372
2019-01-04T09:22:48.196Z,2388
2019-01-04T09:23:58.272Z,2404
2019-01-04T09:25:08.368Z,2384
2019-01-04T09:26:18.453Z,2388
2019-01-04T09:27:28.534Z,2452
2019-01-04T09:28:38.618Z,2600
2019-01-04T09:29:48.693Z,2728
2019-01-04T09:30:58.501Z,2684
2019-01-04T09:32:08.602Z,2624
2019-01-04T09:33:18.428Z,2792
2019-01-04T09:34:28.495Z,3156
2019-01-04T09:35:38.304Z,3180
2019-01-04T09:36:48.361Z,2932
2019-01-04T09:37:58.464Z,2972
2019-01-04T09:39:10.665Z,2848
2019-01-04T09:40:20.707Z,2848
2019-01-04T09:41:30.774Z,2836
2019-01-04T09:42:40.890Z,2888
2019-01-04T09:43:50.961Z,2924
2019-01-04T09:45:00.793Z,2948
2019-01-04T09:46:10.949Z,2916
2019-01-04T09:47:21.019Z,2944
2019-01-04T09:48:31.089Z,3056
2019-01-04T09:49:41.176Z,3064
2019-01-04T09:50:51.275Z,3032
2019-01-04T09:52:01.334Z,3096
2019-01-04T09:53:11.389Z,3196
2019-01-04T09:54:21.456Z,3304
2019-01-04T09:55:31.554Z,3380
2019-01-04T09:56:41.633Z,3440
2019-01-04T09:57:51.722Z,3408
2019-01-04T09:59:01.892Z,3416
2019-01-04T10:00:12.759Z,3348
2019-01-04T10:01:23.027Z,3256
2019-01-04T10:02:32.619Z,3176
2019-01-04T10:03:42.683Z,3112
2019-01-04T10:04:52.771Z,3156
2019-01-04T10:06:02.870Z,3240
2019-01-04T10:07:12.923Z,3396
2019-01-04T10:08:22.791Z,3344
2019-01-04T10:09:32.875Z,3304
2019-01-04T10:10:42.928Z,3424
2019-01-04T10:11:52.976Z,3296
2019-01-04T10:13:02.797Z,3140
2019-01-04T10:14:12.871Z,3156
2019-01-04T10:15:23.022Z,3020
2019-01-04T10:16:33.110Z,2844
2019-01-04T10:17:43.202Z,2772
2019-01-04T10:18:53.282Z,2804
2019-01-04T10:20:04.925Z,2952
2019-01-04T10:21:15.011Z,3104
2019-01-04T10:22:25.068Z,2972
2019-01-04T10:23:35.139Z,2964
2019-01-04T10:24:45.190Z,3044
2019-01-04T10:25:55.016Z,3124
2019-01-04T10:27:04.819Z,3100
2019-01-04T10:28:14.645Z,3124
2019-01-04T10:29:24.705Z,3152
2019-01-04T10:30:34.806Z,3100
2019-01-04T10:31:44.859Z,2992
2019-01-04T10:32:54.766Z,2840
2019-01-04T10:34:04.844Z,2752
2019-01-04T10:35:17.958Z,2680
2019-01-04T10:36:28.052Z,2672
2019-01-04T10:37:37.871Z,2656
2019-01-04T10:38:47.687Z,2656
2019-01-04T10:39:57.495Z,2628
2019-01-04T10:41:07.571Z,2576
2019-01-04T10:42:17.413Z,2556
2019-01-04T10:43:27.483Z,2576
2019-01-04T10:44:37.598Z,2556
2019-01-04T10:45:47.663Z,2532
2019-01-04T10:46:57.495Z,2564
2019-01-04T10:48:07.561Z,2580
2019-01-04T10:49:17.652Z,2608
2019-01-04T10:50:27.692Z,2656
2019-01-04T10:51:37.793Z,2680
2019-01-04T10:52:47.867Z,2664
2019-01-04T10:53:57.945Z,2640
2019-01-04T10:55:09.884Z,2612
2019-01-04T10:56:20.017Z,2600
2019-01-04T10:57:30.093Z,2612
2019-01-04T10:58:40.170Z,2620
2019-01-04T10:59:50.258Z,2656
2019-01-04T11:01:00.378Z,2700
2019-01-04T11:02:09.689Z,2700
2019-01-04T11:03:19.764Z,2692
2019-01-04T11:04:29.856Z,2676
2019-01-04T11:05:39.911Z,2660
2019-01-04T11:06:49.957Z,2664
2019-01-04T11:07:59.773Z,2684
2019-01-04T11:09:09.590Z,2792
2019-01-04T11:10:19.388Z,2788
2019-01-04T11:11:29.529Z,2832
2019-01-04T11:12:39.599Z,2912
2019-01-04T11:13:49.211Z,2880
2019-01-04T11:14:59.327Z,2908
2019-01-04T11:16:09.401Z,2916
2019-01-04T11:17:19.477Z,2932
2019-01-04T11:18:29.579Z,2984
2019-01-04T11:19:39.702Z,2940
2019-01-04T11:20:49.765Z,2972
2019-01-04T11:21:59.829Z,2984
2019-01-04T11:23:09.757Z,2984
2019-01-04T11:24:19.563Z,3028
2019-01-04T11:25:29.670Z,3068
2019-01-04T11:26:39.518Z,3116
2019-01-04T11:27:49.589Z,3152
2019-01-04T11:28:59.673Z,3244
2019-01-04T11:30:09.743Z,3404
2019-01-04T11:31:19.579Z,3456
2019-01-04T11:32:29.657Z,3516
2019-01-04T11:33:39.758Z,3492
2019-01-04T11:34:50.759Z,3536
2019-01-04T11:36:00.878Z,3448
2019-01-04T11:37:10.979Z,3332
2019-01-04T11:38:20.800Z,3172
2019-01-04T11:39:30.926Z,3132
2019-01-04T11:40:40.768Z,3136
2019-01-04T11:41:50.864Z,2992
2019-01-04T11:43:00.949Z,2872
2019-01-04T11:44:11.011Z,2740
2019-01-04T11:45:20.790Z,2652
2019-01-04T11:46:30.606Z,2584
2019-01-04T11:47:40.706Z,2552
2019-01-04T11:48:50.520Z,2552
2019-01-04T11:50:01.304Z,2504
2019-01-04T11:51:11.378Z,2444
2019-01-04T11:52:21.445Z,2400
2019-01-04T11:53:31.273Z,2380
2019-01-04T11:54:41.395Z,2352
2019-01-04T11:55:51.463Z,2316
2019-01-04T11:57:01.554Z,2260
2019-01-04T11:58:11.614Z,2208
2019-01-04T11:59:21.735Z,2152
2019-01-04T12:00:31.797Z,2092
2019-01-04T12:01:41.604Z,2032
2019-01-04T12:02:51.400Z,1968
2019-01-04T12:04:02.187Z,1912
2019-01-04T12:05:12.344Z,1868
2019-01-04T12:06:22.160Z,1868
2019-01-04T12:07:32.237Z,1896
2019-01-04T12:08:42.322Z,1916
2019-01-04T12:09:52.440Z,1908
2019-01-04T12:11:02.236Z,1892
2019-01-04T12:12:12.044Z,1868
2019-01-04T12:13:22.100Z,1828
2019-01-04T12:14:31.927Z,1816
2019-01-04T12:15:42.005Z,1820
2019-01-04T12:16:52.068Z,1832
2019-01-04T12:18:02.473Z,1852
2019-01-04T12:19:12.294Z,1876
2019-01-04T12:20:22.369Z,1900
2019-01-04T12:21:32.473Z,1904
2019-01-04T12:22:42.020Z,1884
2019-01-04T12:23:52.111Z,1868
2019-01-04T12:25:01.948Z,1844
2019-01-04T12:26:12.128Z,1828
2019-01-04T12:27:21.964Z,1832
2019-01-04T12:28:32.027Z,1868
2019-01-04T12:29:42.116Z,1920
2019-01-04T12:30:51.923Z,1944
2019-01-04T12:32:01.975Z,1960
2019-01-04T12:33:12.043Z,1944
2019-01-04T12:34:24.016Z,1916
2019-01-04T12:35:33.822Z,1900
2019-01-04T12:36:43.615Z,1912
2019-01-04T12:37:53.694Z,1976
2019-01-04T12:39:03.757Z,2036
2019-01-04T12:40:13.835Z,2044
2019-01-04T12:41:23.882Z,2044
2019-01-04T12:42:33.964Z,2016
2019-01-04T12:43:50.326Z,1960
2019-01-04T12:45:00.241Z,1896
2019-01-04T12:46:09.837Z,1844
2019-01-04T12:47:21.198Z,1804
2019-01-04T12:48:30.841Z,1784
2019-01-04T12:49:40.960Z,1772
2019-01-04T12:50:51.021Z,1744
2019-01-04T12:52:00.843Z,1696
2019-01-04T12:53:10.926Z,1652
2019-01-04T12:54:20.987Z,1616
2019-01-04T12:55:30.806Z,1584
2019-01-04T12:56:40.871Z,1544
2019-01-04T12:57:50.929Z,1496
2019-01-04T12:59:01.005Z,1448
2019-01-04T13:00:10.829Z,1416
2019-01-04T13:01:21.047Z,1388
2019-01-04T13:02:31.099Z,1348
2019-01-04T13:03:40.894Z,1300
2019-01-04T13:04:50.964Z,1280
2019-01-04T13:06:01.031Z,1276
2019-01-04T13:07:10.941Z,1272
2019-01-04T13:08:20.997Z,1280
2019-01-04T13:09:30.823Z,1260
2019-01-04T13:10:40.908Z,1236
2019-01-04T13:11:50.962Z,1220
2019-01-04T13:13:00.783Z,1240
2019-01-04T13:14:10.332Z,1268
2019-01-04T13:15:20.385Z,1272
2019-01-04T13:16:30.461Z,1244
2019-01-04T13:17:40.533Z,1196
2019-01-04T13:18:50.655Z,1144
2019-01-04T13:20:00.710Z,1108
2019-01-04T13:21:10.790Z,1080
2019-01-04T13:22:20.606Z,1044
2019-01-04T13:23:30.688Z,992
2019-01-04T13:24:40.742Z,976
2019-01-04T13:25:50.534Z,1008
2019-01-04T13:27:00.594Z,1056
2019-01-04T13:28:10.659Z,1108
2019-01-04T13:29:20.466Z,1128
2019-01-04T13:30:30.591Z,1096
2019-01-04T13:31:40.658Z,1024
2019-01-04T13:32:50.204Z,944
2019-01-04T13:34:00.026Z,856
2019-01-04T13:35:10.082Z,776
2019-01-04T13:36:19.936Z,704
2019-01-04T13:37:29.988Z,668
2019-01-04T13:38:40.060Z,648
2019-01-04T13:39:50.138Z,676
2019-01-04T13:41:00.706Z,688
2019-01-04T13:42:10.769Z,688
2019-01-04T13:43:20.567Z,676
2019-01-04T13:44:30.376Z,652
2019-01-04T13:45:40.207Z,632
2019-01-04T13:46:51.336Z,612
2019-01-04T13:48:01.205Z,600
2019-01-04T13:49:11.024Z,600
2019-01-04T13:50:21.104Z,608
2019-01-04T13:51:31.184Z,620
2019-01-04T13:52:41.238Z,632
2019-01-04T13:53:51.298Z,628
2019-01-04T13:55:01.123Z,632
2019-01-04T13:56:11.218Z,636
2019-01-04T13:57:21.036Z,632
2019-01-04T13:58:31.119Z,628
2019-01-04T13:59:41.177Z,624
2019-01-04T14:00:51.367Z,604
2019-01-04T14:02:01.436Z,568
2019-01-04T14:03:11.493Z,532
2019-01-04T14:04:21.580Z,504
2019-01-04T14:05:31.628Z,480
2019-01-04T14:06:41.701Z,452
2019-01-04T14:07:51.770Z,424
2019-01-04T14:09:04.267Z,392
2019-01-04T14:10:14.331Z,348
2019-01-04T14:11:24.443Z,304
2019-01-04T14:12:34.506Z,268
2019-01-04T14:13:44.570Z,240
2019-01-04T14:14:54.682Z,232
2019-01-04T14:16:04.757Z,232
2019-01-04T14:17:14.626Z,236
2019-01-04T14:18:25.206Z,240
2019-01-04T14:19:35.270Z,252
2019-01-04T14:20:45.335Z,264
2019-01-04T14:21:55.384Z,284
2019-01-04T14:23:05.177Z,292
2019-01-04T14:24:15.239Z,288
2019-01-04T14:25:25.328Z,276
2019-01-04T14:26:35.118Z,264
2019-01-04T14:27:45.201Z,248
2019-01-04T14:28:55.016Z,220
2019-01-04T14:30:05.106Z,208
2019-01-04T14:31:15.171Z,208
2019-01-04T14:32:25.231Z,200
2019-01-04T14:33:35.043Z,192
2019-01-04T14:34:45.129Z,184
2019-01-04T14:35:55.199Z,180
2019-01-04T14:37:05.013Z,172
2019-01-04T14:38:15.080Z,176
2019-01-04T14:39:24.888Z,176
2019-01-04T14:40:35.765Z,172
2019-01-04T14:41:45.842Z,168
2019-01-04T14:42:55.897Z,164
2019-01-04T14:44:06.044Z,156
2019-01-04T14:45:16.111Z,148
2019-01-04T14:46:26.170Z,140
2019-01-04T14:47:36.245Z,132
2019-01-04T14:48:46.307Z,124
2019-01-04T14:49:56.370Z,116
2019-01-04T14:51:06.449Z,116
2019-01-04T14:52:16.264Z,108
2019-01-04T14:53:26.074Z,104
2019-01-04T14:54:36.134Z,104
2019-01-04T14:55:45.693Z,100
2019-01-04T14:56:55.769Z,96
2019-01-04T14:58:05.828Z,88
2019-01-04T14:59:15.896Z,84
2019-01-04T15:00:25.982Z,80
2019-01-04T15:01:36.050Z,72
2019-01-04T15:02:45.871Z,68
2019-01-04T15:03:55.679Z,64
2019-01-04T15:05:07.011Z,60
2019-01-04T15:06:17.212Z,60
2019-01-04T15:07:27.328Z,56
2019-01-04T15:08:36.866Z,52
2019-01-04T15:09:46.677Z,44
2019-01-04T15:10:56.721Z,44
2019-01-04T15:12:06.678Z,44
2019-01-04T15:13:16.242Z,40
2019-01-04T15:14:26.079Z,36
2019-01-04T15:15:36.219Z,32
2019-01-04T15:16:46.274Z,28
2019-01-04T15:17:56.335Z,24
2019-01-04T15:19:06.140Z,24
2019-01-04T15:20:15.958Z,20
2019-01-04T15:21:26.033Z,20
2019-01-04T15:22:36.100Z,16
2019-01-04T15:23:45.916Z,12
2019-01-04T15:24:55.727Z,12
2019-01-04T15:26:05.809Z,8
2019-01-04T15:27:15.631Z,8
2019-01-04T15:28:25.699Z,8
2019-01-04T15:29:35.769Z,4
2019-01-04T15:30:45.836Z,4
2019-01-04T15:31:55.909Z,4
2019-01-04T15:33:05.987Z,4
2019-01-04T15:34:15.802Z,4
2019-01-04T15:35:25.617Z,0
2019-01-04T15:36:35.671Z,0
2019-01-04T15:37:45.495Z,0
2019-01-04T15:38:55.587Z,4
2019-01-04T15:40:05.676Z,4
2019-01-04T15:41:15.744Z,4
2019-01-04T15:42:25.829Z,0
2019-01-04T15:43:35.646Z,4
2019-01-04T15:44:45.731Z,0
2019-01-04T15:45:55.539Z,0
2019-01-04T15:47:05.605Z,0
2019-01-04T15:48:15.679Z,0
2019-01-04T15:49:25.480Z,0
2019-01-04T15:50:35.543Z,0
2019-01-04T15:51:45.632Z,0
2019-01-04T15:52:55.711Z,0
2019-01-04T15:54:05.811Z,0
2019-01-04T15:55:15.920Z,0
2019-01-04T15:56:26.006Z,0
2019-01-04T15:57:36.057Z,0
2019-01-04T15:58:46.129Z,0
2019-01-04T15:59:56.214Z,0
2019-01-04T16:01:06.279Z,0
2019-01-04T16:02:16.113Z,0
2019-01-04T16:03:26.217Z,0
2019-01-04T16:04:36.304Z,0
2019-01-04T16:05:46.370Z,0
2019-01-04T16:06:56.447Z,0
2019-01-04T16:08:06.620Z,0
2019-01-04T16:09:16.731Z,0
2019-01-04T16:10:26.573Z,0
2019-01-04T16:11:36.646Z,0
2019-01-04T16:12:46.727Z,0
2019-01-04T16:13:56.785Z,0
2019-01-04T16:15:06.973Z,0
2019-01-04T16:16:17.049Z,0
2019-01-04T16:17:27.102Z,0
2019-01-04T16:18:36.926Z,0
2019-01-04T16:19:47.078Z,0
2019-01-04T16:20:57.399Z,0
2019-01-04T16:22:07.478Z,0
2019-01-04T16:23:17.042Z,0
2019-01-04T16:24:26.849Z,0
2019-01-04T16:25:36.666Z,0
2019-01-04T16:26:46.729Z,0
2019-01-04T16:27:56.562Z,0
2019-01-04T16:29:06.921Z,0
2019-01-04T16:30:17.003Z,0
2019-01-04T16:31:27.123Z,0
2019-01-04T16:32:37.220Z,0
2019-01-04T16:33:47.311Z,0
2019-01-04T16:34:57.362Z,0
2019-01-04T16:36:07.547Z,0
2019-01-04T16:37:17.351Z,0
2019-01-04T16:38:27.418Z,0
2019-01-04T16:39:37.538Z,0
2019-01-04T16:40:47.377Z,0
2019-01-04T16:41:57.286Z,0
2019-01-04T16:43:07.570Z,0
2019-01-04T16:44:17.641Z,0
2019-01-04T16:45:27.458Z,0
2019-01-04T16:46:37.310Z,0
2019-01-04T16:47:47.186Z,0
2019-01-04T16:48:57.314Z,0
2019-01-04T16:50:07.564Z,0
2019-01-04T16:51:17.639Z,0
2019-01-04T16:52:27.760Z,0
2019-01-04T16:53:37.875Z,0
2019-01-04T16:54:47.950Z,0